createdAt,value
2023-04-18T00:01:50.511Z,4.50
2023-04-18T00:11:53.678Z,5.15
2023-04-18T00:21:58.338Z,6.30
2023-04-18T00:32:01.257Z,4.97
2023-04-18T00:42:05.746Z,4.93
2023-04-18T00:52:11.656Z,4.63
2023-04-18T01:02:18.127Z,4.80
2023-04-18T01:12:22.488Z,5.32
2023-04-18T01:22:27.487Z,4.65
2023-04-18T01:32:32.804Z,4.05
2023-04-18T01:42:35.878Z,4.72
2023-04-18T01:52:40.496Z,5.80
2023-04-18T02:02:43.822Z,5.82
2023-04-18T02:12:54.190Z,5.68
2023-04-18T02:22:57.225Z,5.30
2023-04-18T02:33:02.148Z,5.22
2023-04-18T02:43:08.497Z,4.88
2023-04-18T02:53:16.975Z,5.15
2023-04-18T03:03:20.389Z,6.63
2023-04-18T03:13:27.632Z,6.40
2023-04-18T03:23:30.683Z,5.25
2023-04-18T03:33:36.142Z,6.97
2023-04-18T03:43:39.617Z,5.22
2023-04-18T03:53:45.430Z,4.63
2023-04-18T04:03:48.480Z,6.43
2023-04-18T04:13:56.971Z,6.60
2023-04-18T04:24:03.886Z,6.03
2023-04-18T04:34:09.674Z,5.35
2023-04-18T04:44:18.402Z,6.85
2023-04-18T04:54:24.965Z,7.30
2023-04-18T05:04:27.982Z,4.90
2023-04-18T05:14:33.723Z,6.53
2023-04-18T05:24:37.597Z,5.32
2023-04-18T05:34:43.001Z,6.25
2023-04-18T05:44:46.571Z,5.65
2023-04-18T05:54:51.698Z,5.32
2023-04-18T06:04:58.562Z,6.97
2023-04-18T06:15:08.082Z,8.18
2023-04-18T06:25:12.418Z,8.02
2023-04-18T06:35:17.728Z,8.85
2023-04-18T06:45:22.495Z,7.70
2023-04-18T06:55:28.185Z,8.10
2023-04-18T07:05:31.852Z,7.18
2023-04-18T07:15:36.977Z,6.78
2023-04-18T07:25:40.094Z,6.53
2023-04-18T07:35:47.302Z,7.15
2023-04-18T07:45:52.711Z,5.82
2023-04-18T07:55:58.865Z,6.05
2023-04-18T08:06:03.164Z,6.00
2023-04-18T08:16:10.288Z,6.38
2023-04-18T08:26:13.980Z,5.85
2023-04-18T08:36:18.922Z,5.25
2023-04-18T08:46:24.099Z,5.55
2023-04-18T08:56:30.505Z,6.53
2023-04-18T09:06:33.741Z,5.00
2023-04-18T09:16:51.280Z,6.75
2023-04-18T09:26:57.780Z,8.55
2023-04-18T09:37:10.269Z,6.55
2023-04-18T09:47:15.727Z,5.63
2023-04-18T09:57:26.536Z,5.68
2023-04-18T10:07:30.515Z,5.55
2023-04-18T10:17:56.131Z,5.95
2023-04-18T10:28:09.609Z,5.60
2023-04-18T10:38:18.526Z,5.45
2023-04-18T10:48:26.098Z,6.78
2023-04-18T10:58:32.623Z,5.85
2023-04-18T11:08:35.822Z,5.78
2023-04-18T11:18:44.458Z,6.47
2023-04-18T11:28:56.852Z,6.00
2023-04-18T11:39:01.465Z,6.40
2023-04-18T11:49:06.750Z,5.43
2023-04-18T11:59:11.405Z,5.57
2023-04-18T12:09:16.475Z,6.68
2023-04-18T12:19:21.032Z,5.32
2023-04-18T12:29:27.712Z,7.00
2023-04-18T12:39:32.239Z,6.88
2023-04-18T12:49:36.600Z,5.93
2023-04-18T12:59:41.223Z,7.28
2023-04-18T13:09:44.491Z,5.88
2023-04-18T13:19:49.515Z,6.03
2023-04-18T13:29:52.928Z,6.60
2023-04-18T13:39:59.876Z,6.97
2023-04-18T13:50:02.798Z,5.85
2023-04-18T14:00:13.962Z,5.75
2023-04-18T14:10:17.364Z,7.32
2023-04-18T14:20:23.846Z,6.95
2023-04-18T14:30:26.856Z,6.10
2023-04-18T14:40:35.477Z,5.43
2023-04-18T14:50:40.084Z,6.03
2023-04-18T15:00:45.477Z,5.03
2023-04-18T15:10:49.703Z,6.07
2023-04-18T15:20:59.175Z,5.80
2023-04-18T15:31:06.085Z,4.43
2023-04-18T15:41:10.884Z,5.55
2023-04-18T15:51:16.847Z,5.25
2023-04-18T16:01:22.555Z,5.30
2023-04-18T16:11:26.728Z,5.53
2023-04-18T16:21:34.909Z,6.63
2023-04-18T16:31:39.799Z,5.75
2023-04-18T16:41:49.261Z,6.25
2023-04-18T16:51:53.953Z,7.03
2023-04-18T17:02:00.755Z,7.72
2023-04-18T17:12:06.752Z,8.57
2023-04-18T17:22:12.980Z,7.75
2023-04-18T17:32:17.443Z,10.65
2023-04-18T17:42:29.943Z,10.00
2023-04-18T17:52:44.763Z,9.55
2023-04-18T18:02:54.951Z,10.15
2023-04-18T18:13:09.085Z,10.05
2023-04-18T18:23:18.808Z,8.93
2023-04-18T18:33:28.661Z,12.97
2023-04-18T18:43:41.049Z,12.88
2023-04-18T18:53:46.012Z,11.82
2023-04-18T19:03:52.188Z,9.10
2023-04-18T19:14:00.229Z,10.48
2023-04-18T19:24:07.430Z,9.70
2023-04-18T19:34:14.339Z,11.00
2023-04-18T19:44:19.944Z,13.80
2023-04-18T19:54:24.726Z,10.63
2023-04-18T20:04:34.633Z,12.48
2023-04-18T20:14:43.713Z,10.95
2023-04-18T20:24:51.990Z,11.85
2023-04-18T20:34:55.250Z,8.40
2023-04-18T20:45:03.833Z,10.27
2023-04-18T20:55:10.455Z,13.63
2023-04-18T21:05:18.084Z,8.70
2023-04-18T21:15:26.828Z,9.45
2023-04-18T21:25:34.679Z,8.40
2023-04-18T21:35:40.325Z,9.43
2023-04-18T21:45:48.319Z,10.50
2023-04-18T21:55:59.394Z,8.82
2023-04-18T22:06:05.146Z,12.52
2023-04-18T22:16:09.738Z,10.75
2023-04-18T22:26:15.193Z,10.60
2023-04-18T22:36:18.753Z,8.57
2023-04-18T22:46:24.106Z,12.35
2023-04-18T22:56:27.698Z,9.93
2023-04-18T23:06:39.442Z,8.73
2023-04-18T23:16:57.579Z,12.35
2023-04-18T23:27:14.602Z,10.93
2023-04-18T23:37:21.774Z,10.27
2023-04-18T23:47:31.463Z,9.20
2023-04-18T23:57:34.692Z,11.15
